Time;durP1;ratioP1;P1;durP2;ratioP2;P2;SDS_P1;SDS_P2;PMS_P1;PMS_P2;Temp;Humidity;BMP_temperature;BMP_pressure;BME280_temperature;BME280_humidity;BME280_pressure;Samples;Min_cycle;Max_cycle;Signal;HPM_P1;HPM_P2
2022/05/31 00:01:23;;;;;;;2.58;1.00;;;14.00;76.40;;;;;;4977978;28;20041;-64
2022/05/31 00:03:49;;;;;;;3.60;0.85;;;14.00;76.30;;;;;;4977835;28;20054;-64
2022/05/31 00:06:15;;;;;;;7.13;1.77;;;14.00;76.50;;;;;;4977891;28;20046;-70
2022/05/31 00:08:41;;;;;;;1.92;1.08;;;13.60;77.70;;;;;;4977765;28;20039;-64
2022/05/31 00:11:07;;;;;;;1.02;0.82;;;13.40;78.40;;;;;;4977749;28;20483;-64
2022/05/31 00:13:33;;;;;;;2.42;1.13;;;13.40;93.70;;;;;;4977759;28;20038;-71
2022/05/31 00:15:59;;;;;;;3.78;1.00;;;13.30;78.80;;;;;;4977563;28;20049;-70
2022/05/31 00:18:25;;;;;;;1.75;1.00;;;13.20;79.10;;;;;;4977418;28;20062;-64
2022/05/31 00:20:52;;;;;;;2.45;1.05;;;13.10;79.00;;;;;;4977478;28;20046;-63
2022/05/31 00:23:20;;;;;;;2.60;0.80;;;13.20;78.80;;;;;;4977491;28;20509;-64
2022/05/31 00:25:46;;;;;;;4.30;0.98;;;13.10;79.10;;;;;;4977462;28;20054;-64
2022/05/31 00:28:12;;;;;;;1.60;0.98;;;13.10;79.10;;;;;;4977367;28;20104;-64
2022/05/31 00:30:39;;;;;;;7.85;1.00;;;13.30;78.10;;;;;;4977596;28;20380;-70
2022/05/31 00:33:07;;;;;;;2.65;1.30;;;13.40;77.60;;;;;;4977372;28;20081;-66
2022/05/31 00:35:38;;;;;;;1.63;1.00;;;13.50;77.70;;;;;;4977355;28;20126;-64
2022/05/31 00:38:05;;;;;;;1.88;0.95;;;13.50;77.50;;;;;;4976562;28;20049;-69
2022/05/31 00:40:33;;;;;;;2.30;1.30;;;13.50;77.70;;;;;;4976600;28;20043;-65
2022/05/31 00:43:06;;;;;;;2.08;0.98;;;13.50;77.70;;;;;;4976506;28;21008;-64
2022/05/31 00:45:58;;;;;;;5.13;1.13;;;13.40;77.90;;;;;;4977295;28;20073;-64
2022/05/31 00:48:46;;;;;;;2.45;1.10;;;13.40;78.40;;;;;;4977151;28;20383;-64
2022/05/31 00:51:16;;;;;;;4.65;1.25;;;13.40;77.90;;;;;;4976555;28;20450;-63
2022/05/31 00:53:53;;;;;;;1.55;0.88;;;13.50;77.90;;;;;;4976989;28;20100;-64
2022/05/31 00:56:25;;;;;;;3.70;0.90;;;13.40;78.30;;;;;;4976997;28;20053;-64
2022/05/31 00:59:01;;;;;;;2.33;1.00;;;13.40;78.70;;;;;;4977030;28;20046;-68
2022/05/31 01:01:28;;;;;;;1.58;0.93;;;13.30;78.90;;;;;;4976937;28;20039;-64
2022/05/31 01:03:55;;;;;;;2.38;0.95;;;13.50;78.80;;;;;;4976623;28;20503;-64
2022/05/31 01:06:21;;;;;;;5.85;1.17;;;13.40;78.20;;;;;;4976795;28;20098;-70
2022/05/31 01:08:47;;;;;;;2.25;0.88;;;13.40;78.50;;;;;;4976813;28;20042;-64
2022/05/31 01:11:17;;;;;;;4.05;0.90;;;13.30;79.00;;;;;;4976739;28;20137;-64
2022/05/31 01:13:43;;;;;;;5.22;1.13;;;13.10;79.80;;;;;;4976846;28;20050;-69
2022/05/31 01:16:13;;;;;;;4.13;1.35;;;13.00;80.10;;;;;;4976554;28;20043;-64
2022/05/31 01:18:39;;;;;;;3.13;0.90;;;13.00;80.00;;;;;;4976282;28;20569;-64
2022/05/31 01:21:06;;;;;;;2.83;1.17;;;13.10;79.40;;;;;;4976322;28;20050;-64
2022/05/31 01:23:41;;;;;;;3.17;1.10;;;13.10;79.20;;;;;;4976354;28;20035;-64
2022/05/31 01:26:18;;;;;;;3.00;1.15;;;13.10;79.40;;;;;;4976349;28;20489;-64
2022/05/31 01:29:02;;;;;;;2.72;1.10;;;13.20;78.90;;;;;;4976200;28;20074;-69
2022/05/31 01:31:34;;;;;;;1.98;1.10;;;13.30;78.70;;;;;;4976357;28;20049;-64
2022/05/31 01:34:21;;;;;;;3.92;1.00;;;13.30;78.20;;;;;;4976163;28;20047;-63
2022/05/31 01:36:50;;;;;;;3.60;1.30;;;13.40;77.60;;;;;;4976126;28;20042;-64
2022/05/31 01:39:33;;;;;;;2.92;1.10;;;13.50;77.20;;;;;;4976078;28;20442;-64
2022/05/31 01:42:40;;;;;;;1.35;0.75;;;13.50;77.20;;;;;;4976206;28;20129;-64
2022/05/31 01:45:18;;;;;;;2.47;0.88;;;13.50;77.80;;;;;;4897668;29;20127;-65
2022/05/31 01:47:45;;;;;;;2.33;0.90;;;13.50;77.80;;;;;;4967082;28;20054;-70
2022/05/31 01:50:14;;;;;;;3.55;1.30;;;13.40;78.00;;;;;;4975535;28;20046;-64
2022/05/31 01:52:40;;;;;;;3.45;1.00;;;13.40;78.00;;;;;;4975922;28;20101;-64
2022/05/31 01:55:08;;;;;;;1.52;0.90;;;13.50;78.10;;;;;;4976028;28;20569;-64
2022/05/31 01:57:34;;;;;;;2.67;0.88;;;13.40;78.30;;;;;;4976236;28;20069;-64
2022/05/31 02:00:08;;;;;;;3.03;1.23;;;13.40;79.40;;;;;;4975610;28;20047;-63
2022/05/31 02:02:34;;;;;;;4.43;1.17;;;13.30;79.70;;;;;;4975580;28;20043;-64
2022/05/31 02:04:59;;;;;;;1.85;0.90;;;13.10;80.90;;;;;;4975737;28;20053;-64
2022/05/31 02:07:27;;;;;;;4.78;1.00;;;13.10;81.30;;;;;;4975619;28;20054;-70
2022/05/31 02:09:54;;;;;;;5.13;1.85;;;13.00;80.90;;;;;;4975299;28;20038;-69
2022/05/31 02:12:22;;;;;;;2.22;1.00;;;13.10;79.80;;;;;;4975504;28;20574;-69
2022/05/31 02:14:48;;;;;;;2.25;1.00;;;13.10;79.80;;;;;;4975661;28;20042;-67
2022/05/31 02:17:16;;;;;;;3.65;1.08;;;13.10;79.50;;;;;;4975603;28;20045;-64
2022/05/31 02:19:42;;;;;;;2.22;0.80;;;13.20;79.40;;;;;;4975552;28;20047;-64
2022/05/31 02:22:12;;;;;;;3.17;1.20;;;13.10;80.20;;;;;;4975371;28;20054;-70
2022/05/31 02:24:38;;;;;;;3.25;1.17;;;13.00;81.40;;;;;;4975366;28;20039;-64
2022/05/31 02:27:05;;;;;;;3.10;1.00;;;13.00;81.40;;;;;;4975210;28;20132;-70
2022/05/31 02:29:34;;;;;;;4.10;0.98;;;13.00;81.50;;;;;;4975329;28;20054;-69
2022/05/31 02:32:03;;;;;;;3.40;0.80;;;13.00;81.60;;;;;;4975289;28;20565;-70
2022/05/31 02:34:31;;;;;;;3.85;1.10;;;13.00;81.40;;;;;;4975349;28;20549;-63
2022/05/31 02:36:57;;;;;;;3.65;1.05;;;13.00;81.60;;;;;;4975401;28;20113;-69
2022/05/31 02:39:23;;;;;;;5.63;0.85;;;12.90;81.50;;;;;;4975284;28;20524;-64
2022/05/31 02:41:50;;;;;;;2.83;1.00;;;12.90;81.70;;;;;;4975180;28;20053;-64
2022/05/31 02:44:17;;;;;;;3.50;0.82;;;12.90;81.30;;;;;;4975159;28;20507;-65
2022/05/31 02:46:44;;;;;;;5.78;1.23;;;13.00;80.50;;;;;;4975194;28;20145;-64
2022/05/31 02:49:10;;;;;;;2.95;1.30;;;13.10;79.40;;;;;;4974991;28;20503;-70
2022/05/31 02:51:42;;;;;;;3.17;0.90;;;13.30;79.40;;;;;;4975027;28;20039;-64
2022/05/31 02:54:10;;;;;;;3.67;1.25;;;13.40;78.00;;;;;;4974682;28;20043;-64
2022/05/31 02:56:36;;;;;;;2.47;0.85;;;13.40;78.20;;;;;;4974438;28;20306;-64
2022/05/31 02:59:02;;;;;;;2.40;1.17;;;13.30;78.20;;;;;;4975188;28;20047;-64
2022/05/31 03:01:34;;;;;;;5.70;1.10;;;13.30;77.80;;;;;;4975207;28;20098;-64
2022/05/31 03:04:00;;;;;;;5.78;1.30;;;13.50;77.30;;;;;;4978888;28;20406;-64
2022/05/31 03:06:26;;;;;;;1.40;1.02;;;13.50;78.30;;;;;;4978891;28;20557;-67
2022/05/31 03:08:52;;;;;;;4.25;1.67;;;13.30;80.20;;;;;;4978977;28;20372;-64
2022/05/31 03:11:30;;;;;;;4.20;0.90;;;13.30;79.30;;;;;;4978970;28;20042;-69
2022/05/31 03:14:13;;;;;;;2.30;1.00;;;13.40;78.20;;;;;;4978804;28;20193;-69
2022/05/31 03:16:42;;;;;;;4.00;1.20;;;13.70;76.90;;;;;;4978689;28;20047;-64
2022/05/31 03:19:13;;;;;;;2.30;1.00;;;13.70;78.40;;;;;;4976132;28;20066;-63
2022/05/31 03:21:47;;;;;;;3.63;1.02;;;13.30;81.10;;;;;;4965121;28;20046;-64
2022/05/31 03:24:20;;;;;;;2.38;1.02;;;13.10;81.90;;;;;;4978701;28;20043;-64
2022/05/31 03:26:48;;;;;;;2.30;1.10;;;13.00;82.00;;;;;;4978581;28;20406;-64
2022/05/31 03:29:14;;;;;;;2.60;1.00;;;13.00;81.90;;;;;;4978669;28;20038;-64
2022/05/31 03:31:40;;;;;;;1.90;0.85;;;13.00;81.10;;;;;;4978499;28;20165;-64
2022/05/31 03:34:06;;;;;;;1.60;0.85;;;13.10;80.90;;;;;;4978398;28;20046;-69
2022/05/31 03:36:33;;;;;;;1.77;0.90;;;13.00;81.10;;;;;;4978568;28;20606;-68
2022/05/31 03:38:59;;;;;;;3.95;1.35;;;13.00;81.40;;;;;;4978466;28;20077;-64
2022/05/31 03:41:25;;;;;;;2.03;1.05;;;12.90;81.80;;;;;;4971241;28;20550;-64
2022/05/31 03:43:51;;;;;;;2.80;1.10;;;12.90;81.70;;;;;;4958765;28;20051;-64
2022/05/31 03:46:17;;;;;;;1.50;0.77;;;12.90;81.90;;;;;;4958626;28;20039;-68
2022/05/31 03:48:44;;;;;;;2.58;0.88;;;13.00;81.20;;;;;;4958971;28;20427;-64
2022/05/31 03:51:11;;;;;;;3.58;1.10;;;13.20;80.60;;;;;;4958909;28;20047;-64
2022/05/31 03:53:38;;;;;;;2.70;1.15;;;13.10;80.50;;;;;;4958975;28;20529;-63
2022/05/31 03:56:07;;;;;;;4.82;1.25;;;13.30;81.00;;;;;;4958779;28;20122;-64
2022/05/31 03:58:33;;;;;;;3.63;0.80;;;13.40;81.40;;;;;;4958801;28;20043;-70
2022/05/31 04:00:59;;;;;;;4.15;1.10;;;13.60;80.60;;;;;;4958590;28;20066;-69
2022/05/31 04:03:26;;;;;;;3.78;1.08;;;13.60;81.70;;;;;;4958578;28;20047;-64
2022/05/31 04:05:52;;;;;;;2.25;1.20;;;13.60;81.40;;;;;;4958689;28;20102;-64
2022/05/31 04:08:19;;;;;;;3.05;1.08;;;13.70;80.60;;;;;;4958470;28;20423;-64
2022/05/31 04:10:46;;;;;;;3.00;1.30;;;13.80;81.30;;;;;;4958339;28;20066;-64
2022/05/31 04:13:12;;;;;;;4.32;1.23;;;13.70;82.20;;;;;;4957987;28;20070;-65
2022/05/31 04:15:39;;;;;;;6.47;1.65;;;13.60;82.50;;;;;;4958137;28;20043;-63
2022/05/31 04:18:06;;;;;;;4.38;1.40;;;13.60;83.50;;;;;;4958179;28;20054;-64
2022/05/31 04:20:33;;;;;;;3.15;0.90;;;13.50;83.70;;;;;;4958348;28;20047;-70
2022/05/31 04:25:43;;;;;;;4.05;1.00;;;13.40;83.10;;;;;;4957827;29;20050;-64
2022/05/31 04:28:09;;;;;;;8.45;1.30;;;13.40;83.00;;;;;;4957997;28;20523;-63
2022/05/31 04:30:36;;;;;;;8.80;1.88;;;13.50;82.10;;;;;;4958188;28;20047;-70
2022/05/31 04:33:03;;;;;;;4.72;1.33;;;13.70;82.30;;;;;;4958123;28;20046;-70
2022/05/31 04:35:29;;;;;;;5.95;1.10;;;13.70;84.30;;;;;;4958071;28;20518;-67
2022/05/31 04:37:55;;;;;;;1.98;1.02;;;13.70;84.60;;;;;;4968811;28;20043;-65
2022/05/31 04:40:21;;;;;;;8.52;1.65;;;13.80;83.90;;;;;;4977129;28;20602;-64
2022/05/31 04:42:47;;;;;;;2.85;1.00;;;13.70;84.30;;;;;;4977126;28;20385;-64
2022/05/31 04:45:13;;;;;;;3.15;1.25;;;13.60;83.70;;;;;;4977217;28;20081;-64
2022/05/31 04:47:38;;;;;;;5.72;1.10;;;13.70;81.60;;;;;;4977086;28;20138;-64
2022/05/31 04:50:05;;;;;;;2.40;1.17;;;13.70;83.00;;;;;;4977182;28;20070;-70
2022/05/31 04:52:31;;;;;;;3.85;1.45;;;13.70;82.50;;;;;;4977107;28;20039;-69
2022/05/31 04:54:56;;;;;;;5.90;1.60;;;13.90;83.70;;;;;;4976907;28;20042;-64
2022/05/31 04:57:22;;;;;;;4.35;1.30;;;13.80;86.30;;;;;;4977030;28;20030;-64
2022/05/31 04:59:48;;;;;;;3.22;1.25;;;13.70;86.70;;;;;;4976987;28;20038;-64
2022/05/31 05:02:15;;;;;;;6.28;1.35;;;13.70;86.50;;;;;;4976761;28;20066;-66
2022/05/31 05:04:40;;;;;;;3.83;1.50;;;13.70;87.50;;;;;;4976893;28;20121;-64
2022/05/31 05:07:06;;;;;;;4.03;1.23;;;13.80;90.00;;;;;;4976933;28;20133;-64
2022/05/31 05:09:32;;;;;;;2.38;1.10;;;13.70;90.40;;;;;;4976802;28;20582;-64
2022/05/31 05:11:58;;;;;;;2.03;1.17;;;13.50;89.50;;;;;;4976768;28;20106;-64
2022/05/31 05:14:23;;;;;;;6.95;1.25;;;13.60;88.00;;;;;;4976673;28;20109;-63
2022/05/31 05:16:49;;;;;;;4.82;1.30;;;13.60;90.30;;;;;;4976785;28;20046;-64
2022/05/31 05:19:16;;;;;;;2.70;1.05;;;13.40;86.80;;;;;;4976475;28;20557;-69
2022/05/31 05:21:43;;;;;;;4.22;1.70;;;13.40;88.00;;;;;;4976505;28;20031;-64
2022/05/31 05:24:09;;;;;;;4.95;1.00;;;13.20;91.00;;;;;;4976088;28;20060;-63
2022/05/31 05:26:36;;;;;;;4.07;1.40;;;13.10;91.40;;;;;;4975940;28;20118;-64
2022/05/31 05:31:52;;;;;;;5.05;1.60;;;13.20;91.00;;;;;;4975456;28;20046;-69
2022/05/31 05:34:19;;;;;;;8.00;1.38;;;13.30;91.00;;;;;;4972559;28;20047;-65
2022/05/31 05:36:45;;;;;;;5.13;1.08;;;13.50;91.20;;;;;;4973979;28;20475;-64
2022/05/31 05:39:11;;;;;;;5.45;1.50;;;13.50;87.60;;;;;;4974938;28;20394;-65
2022/05/31 05:41:40;;;;;;;5.10;1.95;;;13.40;91.40;;;;;;4975987;28;20057;-67
2022/05/31 05:44:06;;;;;;;5.30;1.83;;;13.30;92.30;;;;;;4976401;28;20402;-66
2022/05/31 05:46:32;;;;;;;6.93;1.42;;;12.90;95.50;;;;;;4976010;28;20043;-64
2022/05/31 05:48:58;;;;;;;3.88;1.67;;;12.20;99.90;;;;;;4975671;28;20422;-64
2022/05/31 05:51:28;;;;;;;7.22;1.52;;;11.90;99.90;;;;;;4970478;28;20040;-68
2022/05/31 05:53:55;;;;;;;7.38;1.40;;;12.00;99.90;;;;;;4965080;28;20050;-66
2022/05/31 05:56:22;;;;;;;4.90;1.17;;;12.20;99.90;;;;;;4956607;28;20069;-69
2022/05/31 05:58:48;;;;;;;11.55;2.00;;;12.30;99.90;;;;;;4962026;28;20039;-70
2022/05/31 06:01:42;;;;;;;5.55;1.73;;;12.50;99.90;;;;;;4975970;28;20398;-64
2022/05/31 06:04:13;;;;;;;3.60;1.35;;;12.70;99.90;;;;;;4969463;28;20070;-65
2022/05/31 06:06:42;;;;;;;9.68;1.73;;;12.90;99.90;;;;;;4957332;28;20055;-64
2022/05/31 06:09:15;;;;;;;3.00;1.25;;;12.90;99.90;;;;;;4956414;28;20474;-69
2022/05/31 06:11:51;;;;;;;2.95;1.48;;;12.80;99.90;;;;;;4956351;28;20047;-63
2022/05/31 06:14:30;;;;;;;3.45;1.30;;;12.80;99.90;;;;;;4956153;28;20039;-64
2022/05/31 06:17:01;;;;;;;3.58;1.25;;;12.80;99.90;;;;;;4956358;28;20467;-69
2022/05/31 06:19:35;;;;;;;5.57;1.38;;;12.90;99.90;;;;;;4956363;28;20483;-69
2022/05/31 06:22:02;;;;;;;7.20;2.20;;;13.00;99.90;;;;;;4956225;28;20031;-62
2022/05/31 06:24:30;;;;;;;2.35;1.00;;;13.10;99.90;;;;;;4954932;28;20046;-62
2022/05/31 06:26:56;;;;;;;1.75;1.23;;;13.20;99.90;;;;;;4955624;28;20520;-62
2022/05/31 06:29:22;;;;;;;3.63;1.40;;;13.30;99.90;;;;;;4955249;28;20063;-63
2022/05/31 06:31:48;;;;;;;2.55;1.30;;;13.40;99.90;;;;;;4955494;28;20126;-62
2022/05/31 06:34:15;;;;;;;2.20;1.10;;;13.50;99.90;;;;;;4956174;28;20432;-62
2022/05/31 06:36:41;;;;;;;1.85;0.80;;;13.60;99.90;;;;;;4955386;28;20043;-63
2022/05/31 06:39:08;;;;;;;2.85;1.00;;;13.70;99.90;;;;;;4956093;28;20035;-63
2022/05/31 06:41:35;;;;;;;2.28;1.30;;;13.80;99.90;;;;;;4956112;28;20031;-69
2022/05/31 06:44:01;;;;;;;3.55;1.13;;;13.90;99.90;;;;;;4956119;28;20395;-62
2022/05/31 06:46:27;;;;;;;3.20;1.00;;;14.00;99.90;;;;;;4955848;28;20042;-69
2022/05/31 06:48:53;;;;;;;1.33;0.85;;;14.10;99.90;;;;;;4955906;28;20057;-66
2022/05/31 06:56:51;;;;;;;2.65;0.95;;;14.30;99.90;;;;;;4955812;29;20082;-63
2022/05/31 06:59:17;;;;;;;3.50;1.55;;;14.20;99.90;;;;;;4955868;28;20047;-63
2022/05/31 07:01:45;;;;;;;4.32;1.40;;;14.30;99.90;;;;;;4955848;28;20049;-69
2022/05/31 07:04:10;;;;;;;4.38;1.27;;;14.30;99.90;;;;;;4955739;28;20499;-67
2022/05/31 07:06:36;;;;;;;3.08;1.75;;;14.30;99.90;;;;;;4955860;28;20054;-63
2022/05/31 07:09:02;;;;;;;6.45;1.10;;;13.90;99.90;;;;;;4955816;28;20031;-63
2022/05/31 07:11:28;;;;;;;5.13;1.75;;;14.20;99.90;;;;;;4955901;28;20027;-63
2022/05/31 07:13:54;;;;;;;5.18;1.10;;;14.20;99.90;;;;;;4955689;28;20043;-63
2022/05/31 07:16:20;;;;;;;3.05;1.23;;;14.20;99.90;;;;;;4955473;28;20395;-63
2022/05/31 07:18:46;;;;;;;3.03;1.00;;;14.30;99.90;;;;;;4960013;28;20166;-63
2022/05/31 07:21:12;;;;;;;3.47;1.48;;;14.10;99.90;;;;;;4975008;28;20375;-69
2022/05/31 07:23:41;;;;;;;2.65;1.48;;;14.20;99.90;;;;;;4974952;28;20051;-63
2022/05/31 07:26:08;;;;;;;3.05;1.45;;;14.10;99.90;;;;;;4975019;28;20045;-63
2022/05/31 07:28:34;;;;;;;3.83;1.25;;;14.00;99.90;;;;;;4974909;28;20050;-62
2022/05/31 07:31:00;;;;;;;4.05;1.13;;;14.30;99.90;;;;;;4974752;28;20388;-62
2022/05/31 07:33:26;;;;;;;5.07;1.50;;;14.30;99.90;;;;;;4974605;28;20049;-63
2022/05/31 07:35:53;;;;;;;2.13;1.20;;;14.40;99.90;;;;;;4974895;28;20632;-68
2022/05/31 07:38:20;;;;;;;5.20;1.17;;;14.40;99.90;;;;;;4974901;28;20038;-63
2022/05/31 07:40:46;;;;;;;2.63;1.33;;;14.60;99.90;;;;;;4974714;28;20128;-63
2022/05/31 07:43:13;;;;;;;2.28;1.13;;;14.60;99.90;;;;;;4974737;28;20521;-63
2022/05/31 07:45:39;;;;;;;6.43;1.15;;;14.60;99.90;;;;;;4974764;28;20039;-70
2022/05/31 07:48:06;;;;;;;3.47;1.20;;;14.70;99.90;;;;;;4975444;28;20669;-70
2022/05/31 07:50:32;;;;;;;3.65;1.23;;;14.70;99.90;;;;;;4978239;28;20054;-62
2022/05/31 07:52:59;;;;;;;3.50;1.05;;;14.70;99.90;;;;;;4978260;28;20046;-63
2022/05/31 07:55:27;;;;;;;2.65;1.63;;;14.80;99.90;;;;;;4978275;28;20495;-63
2022/05/31 08:00:37;;;;;;;1.90;0.90;;;15.00;99.90;;;;;;4978030;28;20077;-63
2022/05/31 08:03:05;;;;;;;4.72;1.80;;;15.20;99.90;;;;;;4977925;28;20133;-63
2022/05/31 08:05:31;;;;;;;6.40;1.63;;;15.20;99.90;;;;;;4978288;28;20165;-62
2022/05/31 08:07:57;;;;;;;5.25;1.88;;;15.20;99.90;;;;;;4977992;28;20074;-63
2022/05/31 08:10:23;;;;;;;7.35;2.10;;;15.30;99.90;;;;;;4978135;28;20101;-66
2022/05/31 08:12:49;;;;;;;4.88;2.33;;;15.40;99.90;;;;;;4977865;28;20035;-63
2022/05/31 08:15:15;;;;;;;5.43;2.13;;;15.40;99.90;;;;;;4977727;28;20469;-63
2022/05/31 08:17:43;;;;;;;4.95;2.10;;;15.50;99.90;;;;;;4977808;28;20077;-63
2022/05/31 08:20:09;;;;;;;2.28;1.55;;;15.60;99.90;;;;;;4977820;28;20071;-63
2022/05/31 08:22:35;;;;;;;4.65;1.67;;;15.70;99.90;;;;;;4977755;28;20082;-68
2022/05/31 08:25:02;;;;;;;4.50;1.40;;;15.80;99.90;;;;;;4977537;28;20043;-63
2022/05/31 08:27:28;;;;;;;4.25;1.77;;;16.00;99.90;;;;;;4976887;28;20511;-63
2022/05/31 08:29:53;;;;;;;6.18;1.85;;;16.00;99.90;;;;;;4977568;28;20089;-68
2022/05/31 08:32:20;;;;;;;6.05;1.90;;;16.20;99.90;;;;;;4977569;28;20046;-62
2022/05/31 08:34:47;;;;;;;3.10;1.77;;;16.20;99.90;;;;;;4977775;28;20097;-62
2022/05/31 08:37:13;;;;;;;5.13;1.65;;;16.10;99.90;;;;;;4977536;28;20467;-70
2022/05/31 08:39:39;;;;;;;3.53;1.25;;;16.10;99.90;;;;;;4977436;28;20517;-63
2022/05/31 08:42:09;;;;;;;5.57;2.40;;;16.10;99.90;;;;;;4977323;28;20507;-67
2022/05/31 08:44:50;;;;;;;4.63;1.80;;;16.30;99.90;;;;;;4977161;28;20035;-69
2022/05/31 08:47:36;;;;;;;6.85;1.52;;;16.40;99.90;;;;;;4977042;28;20050;-63
2022/05/31 08:53:26;;;;;;;5.60;1.42;;;16.50;99.90;;;;;;4977141;28;20524;-63
2022/05/31 08:59:17;;;;;;;5.80;1.35;;;16.50;99.90;;;;;;4976648;28;20094;-63
2022/05/31 09:01:52;;;;;;;4.55;1.50;;;16.50;99.90;;;;;;4976837;28;20051;-63
2022/05/31 09:04:33;;;;;;;6.13;1.25;;;16.70;99.90;;;;;;4977094;28;20057;-63
2022/05/31 09:07:12;;;;;;;2.63;1.55;;;16.70;99.90;;;;;;4976896;28;20042;-63
2022/05/31 09:10:00;;;;;;;4.22;1.50;;;16.90;99.90;;;;;;4976775;28;20054;-63
2022/05/31 09:12:41;;;;;;;2.17;1.60;;;17.10;99.90;;;;;;4976773;28;20054;-63
2022/05/31 09:15:19;;;;;;;6.90;1.80;;;17.10;99.90;;;;;;4976751;28;20093;-68
2022/05/31 09:17:56;;;;;;;4.47;1.65;;;17.00;99.90;;;;;;4976682;28;20050;-63
2022/05/31 09:20:33;;;;;;;2.63;1.58;;;17.10;99.90;;;;;;4976695;28;20181;-63
2022/05/31 09:22:59;;;;;;;3.85;1.55;;;17.50;99.90;;;;;;4976588;28;20078;-62
2022/05/31 09:25:30;;;;;;;2.00;1.05;;;17.60;99.90;;;;;;4976498;28;20043;-63
2022/05/31 09:27:57;;;;;;;6.60;1.63;;;17.60;99.90;;;;;;4975779;28;20059;-63
2022/05/31 09:30:40;;;;;;;2.97;1.30;;;17.50;99.90;;;;;;4976338;28;20039;-63
2022/05/31 09:33:12;;;;;;;2.13;1.33;;;17.50;99.90;;;;;;4976436;28;20074;-64
2022/05/31 09:35:50;;;;;;;5.40;1.25;;;17.50;99.90;;;;;;4976264;28;20039;-63
2022/05/31 09:38:51;;;;;;;4.65;1.30;;;17.70;99.90;;;;;;4976308;28;20039;-63
2022/05/31 09:41:35;;;;;;;;;;;17.80;99.90;;;;;;4944229;28;20039;-63
2022/05/31 09:44:17;;;;;;;5.93;1.40;;;17.90;99.90;;;;;;4976254;28;20000;-69
2022/05/31 09:47:11;;;;;;;5.47;1.35;;;18.00;99.90;;;;;;4975987;28;20042;-64
2022/05/31 09:49:39;;;;;;;6.07;1.45;;;18.20;99.90;;;;;;4976131;28;20047;-63
2022/05/31 09:52:17;;;;;;;5.45;1.40;;;18.20;99.90;;;;;;4976094;28;20043;-63
2022/05/31 09:58:12;;;;;;;5.30;1.33;;;18.40;99.90;;;;;;4971791;28;20117;-63
2022/05/31 10:01:11;;;;;;;5.25;1.30;;;18.60;99.90;;;;;;4975858;28;20047;-63
2022/05/31 10:03:51;;;;;;;7.50;1.52;;;18.60;99.90;;;;;;4975561;28;20042;-64
2022/05/31 10:06:23;;;;;;;4.00;1.60;;;18.70;99.90;;;;;;4975867;28;20458;-64
2022/05/31 10:08:54;;;;;;;4.97;1.90;;;18.50;99.90;;;;;;4975694;28;20175;-69
2022/05/31 10:11:30;;;;;;;3.70;1.98;;;18.50;99.90;;;;;;4975594;28;20054;-63
2022/05/31 10:14:00;;;;;;;5.35;1.80;;;18.30;99.90;;;;;;4975592;28;20711;-67
2022/05/31 10:16:35;;;;;;;4.03;1.20;;;18.30;99.90;;;;;;4975777;28;20042;-64
2022/05/31 10:19:10;;;;;;;8.65;1.70;;;18.40;99.90;;;;;;4975559;28;20125;-64
2022/05/31 10:21:42;;;;;;;5.75;1.50;;;18.40;99.90;;;;;;4975591;28;20509;-63
2022/05/31 10:24:17;;;;;;;4.68;2.20;;;18.30;99.90;;;;;;4975531;28;20038;-63
2022/05/31 10:26:45;;;;;;;6.47;1.77;;;18.20;99.90;;;;;;4975629;28;20380;-64
2022/05/31 10:29:27;;;;;;;4.68;1.83;;;18.30;99.90;;;;;;4975470;28;20043;-63
2022/05/31 10:31:54;;;;;;;4.53;1.85;;;18.30;99.90;;;;;;4975431;28;20129;-63
2022/05/31 10:34:34;;;;;;;8.25;2.58;;;18.30;99.90;;;;;;4975531;28;20043;-63
2022/05/31 10:37:03;;;;;;;5.75;1.77;;;18.30;99.90;;;;;;4975435;28;20518;-63
2022/05/31 10:39:32;;;;;;;6.75;1.80;;;18.20;99.90;;;;;;4975433;28;20031;-64
2022/05/31 10:42:00;;;;;;;4.15;1.92;;;18.10;99.90;;;;;;4975430;28;20122;-63
2022/05/31 10:44:35;;;;;;;7.45;2.70;;;17.90;99.90;;;;;;4974840;28;20049;-64
2022/05/31 10:47:12;;;;;;;4.18;2.05;;;18.10;99.90;;;;;;4975253;28;20070;-63
2022/05/31 10:49:40;;;;;;;8.95;2.33;;;18.30;99.90;;;;;;4975196;28;20049;-64
2022/05/31 10:52:31;;;;;;;5.43;2.17;;;18.60;99.90;;;;;;4975358;28;20104;-64
2022/05/31 10:55:19;;;;;;;4.00;1.80;;;18.60;99.90;;;;;;4975009;28;20201;-64
2022/05/31 10:57:48;;;;;;;3.30;1.50;;;18.70;99.90;;;;;;4974930;28;20403;-63
2022/05/31 11:00:37;;;;;;;4.88;2.05;;;18.80;99.90;;;;;;4974951;28;20509;-63
2022/05/31 11:03:45;;;;;;;3.70;1.25;;;18.60;99.90;;;;;;4974853;28;20133;-63
2022/05/31 11:06:11;;;;;;;4.47;0.98;;;18.00;99.90;;;;;;4953689;28;20498;-63
2022/05/31 11:11:56;;;;;;;3.33;1.10;;;17.50;99.90;;;;;;4974953;28;20038;-67
2022/05/31 11:14:41;;;;;;;4.85;1.33;;;17.60;99.90;;;;;;4974958;28;20065;-69
2022/05/31 11:17:55;;;;;;;1.70;0.90;;;17.50;99.90;;;;;;4975145;28;20034;-64
2022/05/31 11:20:30;;;;;;;9.98;1.63;;;17.40;99.90;;;;;;4974926;28;20046;-63
2022/05/31 11:23:21;;;;;;;3.60;1.00;;;17.40;99.90;;;;;;4975699;28;20113;-68
2022/05/31 11:26:18;;;;;;;3.47;1.40;;;17.30;99.90;;;;;;4978863;28;20070;-63
2022/05/31 11:28:44;;;;;;;5.65;1.20;;;17.10;99.90;;;;;;4978519;28;20074;-63
2022/05/31 11:31:24;;;;;;;3.70;1.40;;;17.00;99.90;;;;;;4977943;28;20469;-62
2022/05/31 11:34:08;;;;;;;3.80;1.27;;;17.00;99.90;;;;;;4978479;28;20038;-63
2022/05/31 11:36:53;;;;;;;2.90;1.02;;;16.90;99.90;;;;;;4978371;28;20066;-69
2022/05/31 11:39:31;;;;;;;3.40;1.60;;;16.90;99.90;;;;;;4978426;28;20054;-63
2022/05/31 11:42:09;;;;;;;2.55;1.23;;;16.80;99.90;;;;;;4978669;28;20038;-63
2022/05/31 11:44:53;;;;;;;3.80;1.42;;;16.60;99.90;;;;;;4978382;28;20073;-70
2022/05/31 11:47:43;;;;;;;2.65;1.02;;;16.60;99.90;;;;;;4978270;28;20205;-63
2022/05/31 11:50:15;;;;;;;3.85;1.33;;;16.70;99.90;;;;;;4978253;28;20081;-63
2022/05/31 11:53:03;;;;;;;3.17;1.25;;;16.70;99.90;;;;;;4978267;28;20085;-64
2022/05/31 11:55:33;;;;;;;2.80;1.20;;;16.70;99.90;;;;;;4978126;28;20043;-69
2022/05/31 11:58:17;;;;;;;5.28;1.30;;;16.80;99.90;;;;;;4977976;28;20122;-64
2022/05/31 12:01:01;;;;;;;2.20;1.17;;;16.70;99.90;;;;;;4978164;28;20533;-63
2022/05/31 12:04:03;;;;;;;3.53;1.30;;;16.90;99.90;;;;;;4977995;28;20050;-65
2022/05/31 12:06:42;;;;;;;1.92;1.17;;;17.00;99.90;;;;;;4977951;28;20047;-64
2022/05/31 12:09:24;;;;;;;1.77;1.17;;;17.00;99.90;;;;;;4977943;28;20487;-63
2022/05/31 12:12:07;;;;;;;4.15;1.40;;;17.00;99.90;;;;;;4977915;28;20042;-70
2022/05/31 12:14:39;;;;;;;2.25;1.10;;;17.00;99.90;;;;;;4977807;28;20049;-63
2022/05/31 12:17:06;;;;;;;3.20;1.45;;;16.90;99.90;;;;;;4977876;28;20043;-63
2022/05/31 12:19:52;;;;;;;3.30;1.20;;;17.10;99.90;;;;;;4977727;28;20042;-63
2022/05/31 12:22:25;;;;;;;2.50;1.17;;;17.20;99.90;;;;;;4977628;28;20491;-63
2022/05/31 12:25:04;;;;;;;4.55;1.45;;;17.20;99.90;;;;;;4977754;28;20066;-65
2022/05/31 12:27:56;;;;;;;6.10;1.30;;;17.50;99.90;;;;;;4977603;28;20042;-69
2022/05/31 12:30:31;;;;;;;2.13;1.10;;;17.60;99.90;;;;;;4977585;28;20049;-63
2022/05/31 12:32:58;;;;;;;2.30;1.38;;;17.80;99.90;;;;;;4977656;28;20069;-64
2022/05/31 12:35:30;;;;;;;2.58;1.35;;;17.80;99.90;;;;;;4977370;28;20431;-63
2022/05/31 12:38:02;;;;;;;2.42;1.10;;;18.00;99.90;;;;;;4977590;28;20498;-63
2022/05/31 12:40:33;;;;;;;2.53;1.40;;;18.00;99.90;;;;;;4977479;28;20042;-63
2022/05/31 12:43:09;;;;;;;3.05;1.50;;;18.00;99.90;;;;;;4977238;28;20035;-63
2022/05/31 12:45:34;;;;;;;6.70;1.60;;;18.20;99.90;;;;;;4977045;28;20046;-63
2022/05/31 12:48:20;;;;;;;6.88;1.67;;;18.20;99.90;;;;;;4977117;28;20047;-70
2022/05/31 12:50:54;;;;;;;4.57;1.48;;;18.30;99.90;;;;;;4977310;28;20117;-64
2022/05/31 12:53:43;;;;;;;2.58;1.42;;;18.00;99.90;;;;;;4977326;28;20391;-63
2022/05/31 12:56:30;;;;;;;3.85;1.35;;;18.30;99.90;;;;;;4977006;28;20042;-67
2022/05/31 12:58:58;;;;;;;2.13;1.25;;;18.40;99.90;;;;;;4977065;28;20137;-63
2022/05/31 13:01:24;;;;;;;13.60;2.75;;;18.40;99.90;;;;;;4977144;28;20045;-64
2022/05/31 13:03:50;;;;;;;2.58;1.30;;;18.60;99.90;;;;;;4976732;28;20043;-65
2022/05/31 13:06:40;;;;;;;3.53;0.98;;;18.50;99.90;;;;;;4976757;28;20061;-64
2022/05/31 13:09:33;;;;;;;6.40;1.35;;;18.40;99.90;;;;;;4976760;28;20075;-69
2022/05/31 13:21:06;;;;;;;5.50;1.40;;;18.80;99.90;;;;;;4962187;28;20049;-64
2022/05/31 13:23:46;;;;;;;4.35;1.23;;;18.70;99.90;;;;;;4975752;28;20495;-64
2022/05/31 13:26:25;;;;;;;5.22;1.52;;;18.80;99.90;;;;;;4972654;28;20093;-65
2022/05/31 13:28:57;;;;;;;3.42;1.55;;;18.80;99.90;;;;;;4974162;28;20042;-65
2022/05/31 13:31:27;;;;;;;5.55;1.83;;;18.60;99.90;;;;;;4973677;28;20035;-66
2022/05/31 13:34:04;;;;;;;3.28;1.38;;;18.60;99.90;;;;;;4975388;28;20058;-64
2022/05/31 13:36:44;;;;;;;3.97;1.63;;;18.60;99.90;;;;;;4975950;28;20090;-64
2022/05/31 13:39:13;;;;;;;7.50;1.85;;;18.60;99.90;;;;;;4976094;28;20515;-69
2022/05/31 13:41:50;;;;;;;4.72;1.73;;;18.60;99.90;;;;;;4974317;28;20042;-70
2022/05/31 13:44:28;;;;;;;3.10;1.52;;;18.50;99.90;;;;;;4973705;28;20047;-65
2022/05/31 13:47:00;;;;;;;3.38;1.50;;;18.30;99.90;;;;;;4973225;28;20089;-70